createdAt,value
2018-12-19T00:00:18.441Z,7.20
2018-12-19T00:02:47.046Z,7.20
2018-12-19T00:05:15.442Z,7.30
2018-12-19T00:07:43.867Z,7.20
2018-12-19T00:10:12.284Z,7.20
2018-12-19T00:12:40.720Z,7.20
2018-12-19T00:15:09.268Z,7.30
2018-12-19T00:17:37.699Z,7.30
2018-12-19T00:20:07.312Z,7.40
2018-12-19T00:22:35.736Z,7.40
2018-12-19T00:25:04.995Z,7.50
2018-12-19T00:27:33.403Z,7.40
2018-12-19T00:30:01.823Z,7.40
2018-12-19T00:32:30.243Z,7.40
2018-12-19T00:34:58.695Z,7.40
2018-12-19T00:37:27.110Z,7.40
2018-12-19T00:39:55.559Z,7.40
2018-12-19T00:42:23.977Z,7.50
2018-12-19T00:44:52.474Z,7.50
2018-12-19T00:47:20.908Z,7.50
2018-12-19T00:49:49.310Z,7.50
2018-12-19T00:52:17.745Z,7.50
2018-12-19T00:54:46.167Z,7.50
2018-12-19T00:57:14.595Z,7.60
2018-12-19T00:59:43.021Z,7.60
2018-12-19T01:02:11.438Z,7.60
2018-12-19T01:04:39.887Z,7.60
2018-12-19T01:07:08.382Z,7.60
2018-12-19T01:09:36.795Z,7.50
2018-12-19T01:12:05.635Z,7.60
2018-12-19T01:14:34.056Z,7.60
2018-12-19T01:17:02.493Z,7.50
2018-12-19T01:19:30.904Z,7.50
2018-12-19T01:21:59.348Z,7.50
2018-12-19T01:24:27.819Z,7.50
2018-12-19T01:26:56.315Z,7.60
2018-12-19T01:29:24.749Z,7.50
2018-12-19T01:31:53.151Z,7.50
2018-12-19T01:34:21.590Z,7.50
2018-12-19T01:36:50.010Z,7.50
2018-12-19T01:39:22.451Z,7.50
2018-12-19T01:41:48.956Z,7.50
2018-12-19T01:44:17.372Z,7.50
2018-12-19T01:46:45.808Z,7.50
2018-12-19T01:49:14.234Z,7.50
2018-12-19T01:51:42.677Z,7.60
2018-12-19T01:54:11.091Z,7.60
2018-12-19T01:56:39.504Z,7.60
2018-12-19T01:59:07.935Z,7.50
2018-12-19T02:01:36.391Z,7.60
2018-12-19T02:04:04.817Z,7.60
2018-12-19T02:06:33.258Z,7.60
2018-12-19T02:09:01.688Z,7.50
2018-12-19T02:11:30.115Z,7.50
2018-12-19T02:13:58.732Z,7.50
2018-12-19T02:16:27.188Z,7.50
2018-12-19T02:18:55.606Z,7.50
2018-12-19T02:21:24.048Z,7.50
2018-12-19T02:23:52.434Z,7.50
2018-12-19T02:26:20.879Z,7.50
2018-12-19T02:28:49.598Z,7.50
2018-12-19T02:31:18.047Z,7.40
2018-12-19T02:33:46.473Z,7.40
2018-12-19T02:36:14.895Z,7.40
2018-12-19T02:38:43.344Z,7.40
2018-12-19T02:41:11.796Z,7.40
2018-12-19T02:43:40.209Z,7.40
2018-12-19T02:46:08.703Z,7.40
2018-12-19T02:48:37.172Z,7.40
2018-12-19T02:51:05.643Z,7.40
2018-12-19T02:53:34.105Z,7.40
2018-12-19T02:56:02.589Z,7.30
2018-12-19T02:58:31.006Z,7.30
2018-12-19T03:00:59.415Z,7.40
2018-12-19T03:03:27.966Z,7.30
2018-12-19T03:05:56.414Z,7.40
2018-12-19T03:08:25.621Z,7.50
2018-12-19T03:10:54.257Z,7.50
2018-12-19T03:13:22.793Z,7.50
2018-12-19T03:15:51.197Z,7.50
2018-12-19T03:18:19.632Z,7.50
2018-12-19T03:20:48.035Z,7.50
2018-12-19T03:23:16.492Z,7.50
2018-12-19T03:25:45.037Z,7.50
2018-12-19T03:28:13.584Z,7.50
2018-12-19T03:30:42.007Z,7.50
2018-12-19T03:33:10.430Z,7.60
2018-12-19T03:35:38.845Z,7.60
2018-12-19T03:38:07.813Z,7.60
2018-12-19T03:40:36.270Z,7.60
2018-12-19T03:43:04.836Z,7.50
2018-12-19T03:45:33.285Z,7.60
2018-12-19T03:48:01.713Z,7.50
2018-12-19T03:50:30.150Z,7.60
2018-12-19T03:52:58.595Z,7.60
2018-12-19T03:55:26.991Z,7.60
2018-12-19T03:57:55.415Z,7.60
2018-12-19T04:00:23.966Z,7.60
2018-12-19T04:02:52.398Z,7.60
2018-12-19T04:05:20.816Z,7.60
2018-12-19T04:07:49.752Z,7.60
2018-12-19T04:10:18.186Z,7.60
2018-12-19T04:12:46.623Z,7.60
2018-12-19T04:15:15.077Z,7.70
2018-12-19T04:17:43.549Z,7.60
2018-12-19T04:20:12.038Z,7.60
2018-12-19T04:22:40.431Z,7.60
2018-12-19T04:25:08.909Z,7.60
2018-12-19T04:27:37.319Z,7.60
2018-12-19T04:30:06.078Z,7.60
2018-12-19T04:32:34.693Z,7.60
2018-12-19T04:35:03.276Z,7.70
2018-12-19T04:37:31.700Z,7.60
2018-12-19T04:40:05.297Z,7.60
2018-12-19T04:42:30.611Z,7.60
2018-12-19T04:44:59.107Z,7.60
2018-12-19T04:47:27.543Z,7.60
2018-12-19T04:49:56.454Z,7.60
2018-12-19T04:52:25.499Z,7.60
2018-12-19T04:54:54.035Z,7.60
2018-12-19T04:57:22.466Z,7.60
2018-12-19T04:59:50.894Z,7.70
2018-12-19T05:02:20.386Z,7.70
2018-12-19T05:04:48.803Z,7.70
2018-12-19T05:07:18.189Z,7.70
2018-12-19T05:09:46.614Z,7.80
2018-12-19T05:12:15.119Z,7.80
2018-12-19T05:14:43.616Z,7.70
2018-12-19T05:17:12.350Z,7.80
2018-12-19T05:19:41.099Z,7.70
2018-12-19T05:22:09.543Z,7.70
2018-12-19T05:24:38.008Z,7.60
2018-12-19T05:27:06.564Z,7.60
2018-12-19T05:29:35.013Z,7.60
2018-12-19T05:32:03.467Z,7.60
2018-12-19T05:34:31.891Z,7.70
2018-12-19T05:37:00.353Z,7.70
2018-12-19T05:39:28.769Z,7.70
2018-12-19T05:41:57.183Z,7.70
2018-12-19T05:44:25.640Z,7.80
2018-12-19T05:46:54.122Z,7.70
2018-12-19T05:49:22.569Z,7.70
2018-12-19T05:51:52.533Z,7.80
2018-12-19T05:54:21.012Z,7.70
2018-12-19T05:56:49.553Z,7.70
2018-12-19T05:59:18.107Z,7.80
2018-12-19T06:01:46.558Z,7.80
2018-12-19T06:04:15.031Z,7.80
2018-12-19T06:06:43.496Z,7.80
2018-12-19T06:09:11.976Z,7.70
2018-12-19T06:11:40.383Z,7.60
2018-12-19T06:14:08.828Z,7.70
2018-12-19T06:16:37.292Z,7.60
2018-12-19T06:19:05.764Z,7.60
2018-12-19T06:21:34.737Z,7.60
2018-12-19T06:24:03.196Z,7.60
2018-12-19T06:26:31.606Z,7.70
2018-12-19T06:29:00.000Z,7.80
2018-12-19T06:31:29.263Z,7.80
2018-12-19T06:33:58.018Z,7.90
2018-12-19T06:36:26.480Z,7.80
2018-12-19T06:38:54.905Z,7.90
2018-12-19T06:41:23.987Z,7.90
2018-12-19T06:43:52.537Z,7.90
2018-12-19T06:46:21.007Z,7.90
2018-12-19T06:48:49.491Z,7.90
2018-12-19T06:51:18.963Z,7.90
2018-12-19T06:53:47.649Z,7.90
2018-12-19T06:56:16.091Z,7.90
2018-12-19T06:58:44.498Z,7.90
2018-12-19T07:01:12.930Z,7.90
2018-12-19T07:03:41.373Z,8.00
2018-12-19T07:06:09.815Z,8.00
2018-12-19T07:08:38.268Z,8.00
2018-12-19T07:11:06.726Z,8.00
2018-12-19T07:13:35.206Z,8.00
2018-12-19T07:16:03.772Z,8.00
2018-12-19T07:18:32.220Z,8.00
2018-12-19T07:21:01.001Z,8.00
2018-12-19T07:23:30.247Z,8.00
2018-12-19T07:25:58.701Z,8.00
2018-12-19T07:28:27.223Z,8.00
2018-12-19T07:30:55.695Z,8.10
2018-12-19T07:33:24.095Z,8.10
2018-12-19T07:35:52.532Z,8.10
2018-12-19T07:38:20.958Z,8.00
2018-12-19T07:40:49.392Z,8.00
2018-12-19T07:43:17.804Z,8.00
2018-12-19T07:45:46.218Z,8.00
2018-12-19T07:48:14.770Z,8.00
2018-12-19T07:50:43.165Z,7.90
2018-12-19T07:53:11.842Z,7.90
2018-12-19T07:55:41.102Z,7.90
2018-12-19T07:58:09.552Z,8.00
2018-12-19T08:00:38.006Z,7.90
2018-12-19T08:03:06.435Z,7.90
2018-12-19T08:05:34.875Z,7.90
2018-12-19T08:08:03.321Z,7.90
2018-12-19T08:10:31.838Z,7.90
2018-12-19T08:13:00.279Z,7.90
2018-12-19T08:15:28.729Z,7.90
2018-12-19T08:17:57.167Z,7.90
2018-12-19T08:20:25.603Z,7.90
2018-12-19T08:22:54.035Z,8.00
2018-12-19T08:25:22.462Z,8.00
2018-12-19T08:27:50.937Z,8.00
2018-12-19T08:30:19.388Z,8.00
2018-12-19T08:32:47.798Z,8.10
2018-12-19T08:35:22.818Z,8.10
2018-12-19T08:37:51.272Z,8.10
2018-12-19T08:40:19.678Z,8.10
2018-12-19T08:42:48.118Z,8.20
2018-12-19T08:45:17.060Z,8.20
2018-12-19T08:47:45.511Z,8.30
2018-12-19T08:50:13.954Z,8.20
2018-12-19T08:52:42.395Z,8.20
2018-12-19T08:55:10.963Z,8.30
2018-12-19T08:57:39.363Z,8.20
2018-12-19T09:00:10.006Z,8.20
2018-12-19T09:02:38.676Z,8.20
2018-12-19T09:05:07.131Z,8.10
2018-12-19T09:07:35.656Z,8.10
2018-12-19T09:10:04.977Z,8.10
2018-12-19T09:12:33.444Z,8.10
2018-12-19T09:15:01.908Z,8.20
2018-12-19T09:17:30.468Z,8.20
2018-12-19T09:19:59.338Z,8.20
2018-12-19T09:22:27.852Z,8.20
2018-12-19T09:24:56.322Z,8.30
2018-12-19T09:27:24.777Z,8.30
2018-12-19T09:29:53.214Z,8.30
2018-12-19T09:32:21.699Z,8.50
2018-12-19T09:34:50.181Z,8.50
2018-12-19T09:37:18.580Z,8.50
2018-12-19T09:39:47.000Z,8.60
2018-12-19T09:42:15.441Z,8.60
2018-12-19T09:44:43.934Z,8.60
2018-12-19T09:47:12.498Z,8.70
2018-12-19T09:49:40.949Z,8.70
2018-12-19T09:52:09.347Z,8.80
2018-12-19T09:54:37.821Z,8.80
2018-12-19T09:57:06.283Z,8.90
2018-12-19T09:59:34.744Z,8.90
2018-12-19T10:02:03.206Z,9.00
2018-12-19T10:04:31.850Z,9.10
2018-12-19T10:07:00.263Z,9.10
2018-12-19T10:09:28.693Z,9.10
2018-12-19T10:11:57.090Z,9.20
2018-12-19T10:14:25.553Z,9.20
2018-12-19T10:16:54.077Z,9.20
2018-12-19T10:19:22.518Z,9.30
2018-12-19T10:21:51.060Z,9.30
2018-12-19T10:24:21.538Z,9.30
2018-12-19T10:26:50.029Z,9.40
2018-12-19T10:29:18.533Z,9.40
2018-12-19T10:31:47.078Z,9.40
2018-12-19T10:34:15.603Z,9.40
2018-12-19T10:36:44.295Z,9.40
2018-12-19T10:39:16.698Z,9.30
2018-12-19T10:41:45.209Z,9.30
2018-12-19T10:44:13.671Z,9.30
2018-12-19T10:46:42.332Z,9.40
2018-12-19T10:49:10.747Z,9.40
2018-12-19T10:51:39.204Z,9.40
2018-12-19T10:54:07.628Z,9.40
2018-12-19T10:56:36.116Z,9.50
2018-12-19T10:59:04.739Z,9.50
2018-12-19T11:01:33.189Z,9.60
2018-12-19T11:04:01.596Z,9.60
2018-12-19T11:06:30.035Z,9.60
2018-12-19T11:08:58.481Z,9.50
2018-12-19T11:11:32.249Z,9.50
2018-12-19T11:13:57.455Z,9.60
2018-12-19T11:16:25.935Z,9.60
2018-12-19T11:18:54.370Z,9.60
2018-12-19T11:21:23.229Z,9.60
2018-12-19T11:23:51.719Z,9.60
2018-12-19T11:26:20.165Z,9.70
2018-12-19T11:28:48.672Z,9.70
2018-12-19T11:31:17.507Z,9.70
2018-12-19T11:33:45.983Z,9.70
2018-12-19T11:36:14.422Z,9.80
2018-12-19T11:38:42.855Z,9.80
2018-12-19T11:41:11.285Z,9.80
2018-12-19T11:43:39.746Z,9.80
2018-12-19T11:46:08.168Z,9.70
2018-12-19T11:48:36.658Z,9.60
2018-12-19T11:51:05.155Z,9.60
2018-12-19T11:53:33.979Z,9.60
2018-12-19T11:56:02.439Z,9.60
2018-12-19T11:58:30.868Z,9.70
2018-12-19T12:00:59.430Z,9.80
2018-12-19T12:03:27.846Z,9.80
2018-12-19T12:05:56.316Z,9.80
2018-12-19T12:08:24.758Z,9.80
2018-12-19T12:10:53.214Z,9.70
2018-12-19T12:13:21.651Z,9.70
2018-12-19T12:15:50.134Z,9.70
2018-12-19T12:18:18.593Z,9.80
2018-12-19T12:20:47.035Z,9.80
2018-12-19T12:23:15.467Z,9.80
2018-12-19T12:25:43.888Z,9.70
2018-12-19T12:28:13.374Z,9.70
2018-12-19T12:30:42.051Z,9.70
2018-12-19T12:33:10.458Z,9.70
2018-12-19T12:35:39.516Z,9.70
2018-12-19T12:38:08.074Z,9.70
2018-12-19T12:40:36.524Z,9.80
2018-12-19T12:43:04.934Z,9.70
2018-12-19T12:45:33.368Z,9.70
2018-12-19T12:48:01.791Z,9.70
2018-12-19T12:50:30.222Z,9.70
2018-12-19T12:52:58.630Z,9.60
2018-12-19T12:55:27.088Z,9.70
2018-12-19T12:57:55.501Z,9.80
2018-12-19T13:00:23.943Z,9.80
2018-12-19T13:02:52.369Z,9.80
2018-12-19T13:05:22.966Z,9.80
2018-12-19T13:07:51.395Z,10.00
2018-12-19T13:10:19.927Z,10.00
2018-12-19T13:12:48.360Z,10.00
2018-12-19T13:15:21.038Z,10.00
2018-12-19T13:17:49.963Z,10.00
2018-12-19T13:20:18.365Z,10.00
2018-12-19T13:22:46.840Z,9.90
2018-12-19T13:25:15.318Z,9.80
2018-12-19T13:27:44.123Z,9.80
2018-12-19T13:30:12.499Z,9.70
2018-12-19T13:32:40.963Z,9.80
2018-12-19T13:35:09.403Z,9.80
2018-12-19T13:37:37.832Z,9.70
2018-12-19T13:40:06.668Z,9.70
2018-12-19T13:42:35.155Z,9.70
2018-12-19T13:45:03.935Z,9.70
2018-12-19T13:47:32.378Z,9.70
2018-12-19T13:50:00.840Z,9.50
2018-12-19T13:52:29.241Z,9.50
2018-12-19T13:54:57.686Z,9.50
2018-12-19T13:57:26.130Z,9.50
2018-12-19T13:59:54.556Z,9.50
2018-12-19T14:02:22.943Z,9.60
2018-12-19T14:04:51.427Z,9.70
2018-12-19T14:07:19.910Z,9.70
2018-12-19T14:09:48.553Z,9.70
2018-12-19T14:12:16.987Z,9.80
2018-12-19T14:14:46.016Z,9.80
2018-12-19T14:17:14.466Z,9.80
2018-12-19T14:19:42.961Z,9.70
2018-12-19T14:22:11.342Z,9.50
2018-12-19T14:24:39.767Z,9.50
2018-12-19T14:27:08.234Z,9.40
2018-12-19T14:29:36.659Z,9.40
2018-12-19T14:32:05.114Z,9.40
2018-12-19T14:34:33.533Z,9.40
2018-12-19T14:37:01.997Z,9.40
2018-12-19T14:39:30.408Z,9.30
2018-12-19T14:41:58.859Z,9.30
2018-12-19T14:44:27.279Z,9.30
2018-12-19T14:46:55.731Z,9.20
2018-12-19T14:49:24.149Z,9.20
2018-12-19T14:51:52.604Z,9.10
2018-12-19T14:54:21.008Z,9.00
2018-12-19T14:56:49.435Z,9.00
2018-12-19T14:59:18.133Z,9.00
2018-12-19T15:01:46.577Z,8.90
2018-12-19T15:04:15.035Z,8.80
2018-12-19T15:06:43.538Z,8.90
2018-12-19T15:09:11.998Z,8.80
2018-12-19T15:11:40.551Z,8.70
2018-12-19T15:14:08.971Z,8.70
2018-12-19T15:16:37.394Z,8.70
2018-12-19T15:19:05.970Z,8.60
2018-12-19T15:21:35.561Z,8.60
2018-12-19T15:24:04.310Z,8.50
2018-12-19T15:26:32.842Z,8.50
2018-12-19T15:29:01.292Z,8.40
2018-12-19T15:31:29.836Z,8.40
2018-12-19T15:33:58.272Z,8.50
2018-12-19T15:36:27.019Z,8.50
2018-12-19T15:38:55.480Z,8.50
2018-12-19T15:41:23.884Z,8.40
2018-12-19T15:43:52.566Z,8.40
2018-12-19T15:46:20.991Z,8.30
2018-12-19T15:48:49.422Z,8.20
2018-12-19T15:51:18.777Z,8.20
2018-12-19T15:53:47.215Z,8.10
2018-12-19T15:56:15.663Z,8.10
2018-12-19T15:58:44.077Z,8.10
2018-12-19T16:01:12.510Z,8.10
2018-12-19T16:03:40.917Z,8.00
2018-12-19T16:06:09.412Z,8.10
2018-12-19T16:08:37.815Z,8.10
2018-12-19T16:11:06.249Z,8.10
2018-12-19T16:13:36.827Z,8.10
2018-12-19T16:16:05.608Z,8.00
2018-12-19T16:18:34.033Z,8.20
2018-12-19T16:21:02.451Z,8.20
2018-12-19T16:23:30.864Z,8.10
2018-12-19T16:25:59.297Z,8.20
2018-12-19T16:28:27.715Z,8.10
2018-12-19T16:30:56.135Z,8.10
2018-12-19T16:33:24.710Z,8.20
2018-12-19T16:35:53.156Z,8.20
2018-12-19T16:38:21.596Z,8.20
2018-12-19T16:40:50.042Z,8.30
2018-12-19T16:43:18.467Z,8.30
2018-12-19T16:45:46.875Z,8.30
2018-12-19T16:48:15.351Z,8.30
2018-12-19T16:50:43.817Z,8.40
2018-12-19T16:53:12.237Z,8.30
2018-12-19T16:55:40.747Z,8.30
2018-12-19T16:58:09.165Z,8.30
2018-12-19T17:00:37.851Z,8.30
2018-12-19T17:03:06.261Z,8.20
2018-12-19T17:05:34.716Z,8.30
2018-12-19T17:08:03.157Z,8.30
2018-12-19T17:10:31.580Z,8.20
2018-12-19T17:13:00.032Z,8.20
2018-12-19T17:15:28.487Z,8.20
2018-12-19T17:17:56.931Z,8.30
2018-12-19T17:20:25.404Z,8.20
2018-12-19T17:22:53.835Z,8.10
2018-12-19T17:25:22.235Z,8.10
2018-12-19T17:27:50.703Z,8.00
2018-12-19T17:30:19.120Z,7.90
2018-12-19T17:32:49.170Z,7.90
2018-12-19T17:35:17.768Z,7.90
2018-12-19T17:37:46.242Z,7.80
2018-12-19T17:40:14.654Z,7.80
2018-12-19T17:42:43.113Z,7.70
2018-12-19T17:45:11.555Z,7.70
2018-12-19T17:47:40.894Z,7.70
2018-12-19T17:50:09.467Z,7.70
2018-12-19T17:52:37.987Z,7.60
2018-12-19T17:55:07.072Z,7.60
2018-12-19T17:57:35.542Z,7.60
2018-12-19T18:00:05.164Z,7.60
2018-12-19T18:02:33.616Z,7.50
2018-12-19T18:05:02.062Z,7.50
2018-12-19T18:07:30.530Z,7.40
2018-12-19T18:09:58.970Z,7.40
2018-12-19T18:12:27.392Z,7.50
2018-12-19T18:14:55.807Z,7.50
2018-12-19T18:17:24.244Z,7.50
2018-12-19T18:19:52.753Z,7.50
2018-12-19T18:22:21.207Z,7.40
2018-12-19T18:24:49.604Z,7.30
2018-12-19T18:27:18.035Z,7.30
2018-12-19T18:29:46.543Z,7.30
2018-12-19T18:32:14.950Z,7.30
2018-12-19T18:34:43.389Z,7.30
2018-12-19T18:37:11.794Z,7.20
2018-12-19T18:39:40.587Z,7.30
2018-12-19T18:42:09.027Z,7.30
2018-12-19T18:44:37.506Z,7.30
2018-12-19T18:47:06.244Z,7.20
2018-12-19T18:49:34.703Z,7.10
2018-12-19T18:52:03.381Z,7.10
2018-12-19T18:54:31.877Z,7.20
2018-12-19T18:57:00.325Z,7.20
2018-12-19T18:59:28.781Z,7.20
2018-12-19T19:01:57.199Z,7.20
2018-12-19T19:04:25.653Z,7.20
2018-12-19T19:06:54.144Z,7.30
2018-12-19T19:09:22.594Z,7.30
2018-12-19T19:11:51.031Z,7.30
2018-12-19T19:14:19.741Z,7.30
2018-12-19T19:16:48.534Z,7.30
2018-12-19T19:19:17.733Z,7.40
2018-12-19T19:21:46.293Z,7.30
2018-12-19T19:24:14.747Z,7.50
2018-12-19T19:26:43.175Z,7.50
2018-12-19T19:29:11.733Z,7.50
2018-12-19T19:31:40.161Z,7.50
2018-12-19T19:34:08.620Z,7.50
2018-12-19T19:36:37.065Z,7.60
2018-12-19T19:39:07.301Z,7.70
2018-12-19T19:41:35.933Z,7.70
2018-12-19T19:44:05.199Z,7.70
2018-12-19T19:46:35.017Z,7.70
2018-12-19T19:49:03.564Z,7.70
2018-12-19T19:51:32.132Z,7.80
2018-12-19T19:54:00.831Z,7.80
2018-12-19T19:56:30.084Z,7.80
2018-12-19T19:58:58.686Z,7.80
2018-12-19T20:01:27.460Z,7.90
2018-12-19T20:03:55.880Z,7.80
2018-12-19T20:06:24.512Z,7.80
2018-12-19T20:08:52.941Z,7.90
2018-12-19T20:11:21.947Z,7.80
2018-12-19T20:13:50.699Z,7.80
2018-12-19T20:16:19.109Z,7.70
2018-12-19T20:18:47.564Z,7.70
2018-12-19T20:21:16.358Z,7.70
2018-12-19T20:23:45.214Z,7.70
2018-12-19T20:26:13.657Z,7.80
2018-12-19T20:28:42.063Z,7.70
2018-12-19T20:31:10.504Z,7.50
2018-12-19T20:33:38.943Z,7.50
2018-12-19T20:36:07.394Z,7.50
2018-12-19T20:38:35.822Z,7.40
2018-12-19T20:41:04.241Z,7.40
2018-12-19T20:43:32.689Z,7.40
2018-12-19T20:46:01.228Z,7.40
2018-12-19T20:48:29.850Z,7.40
2018-12-19T20:50:58.710Z,7.30
2018-12-19T20:53:28.106Z,7.30
2018-12-19T20:55:56.564Z,7.30
2018-12-19T20:58:25.033Z,7.30
2018-12-19T21:00:53.570Z,7.30
2018-12-19T21:03:21.987Z,7.30
2018-12-19T21:05:50.452Z,7.30
2018-12-19T21:08:18.947Z,7.40
2018-12-19T21:10:47.353Z,7.30
2018-12-19T21:13:15.811Z,7.30
2018-12-19T21:15:44.214Z,7.30
2018-12-19T21:18:17.942Z,7.30
2018-12-19T21:20:46.452Z,7.30
2018-12-19T21:23:14.885Z,7.30
2018-12-19T21:25:43.320Z,7.20
2018-12-19T21:28:11.779Z,7.20
2018-12-19T21:30:40.227Z,7.20
2018-12-19T21:33:13.960Z,7.20
2018-12-19T21:35:39.146Z,7.20
2018-12-19T21:38:07.563Z,7.30
2018-12-19T21:40:38.319Z,7.20
2018-12-19T21:43:07.922Z,7.20
2018-12-19T21:45:36.646Z,7.20
2018-12-19T21:48:05.197Z,7.20
2018-12-19T21:50:33.802Z,7.30
2018-12-19T21:53:03.152Z,7.20
2018-12-19T21:55:31.607Z,7.20
2018-12-19T21:58:00.086Z,7.20
2018-12-19T22:00:34.272Z,7.10
2018-12-19T22:03:09.452Z,7.20
2018-12-19T22:05:39.397Z,7.10
2018-12-19T22:08:07.915Z,7.10
2018-12-19T22:10:36.457Z,7.10
2018-12-19T22:13:05.062Z,7.00
2018-12-19T22:15:33.755Z,7.10
2018-12-19T22:18:07.619Z,7.10
2018-12-19T22:20:37.381Z,7.20
2018-12-19T22:23:05.920Z,7.10
2018-12-19T22:25:34.614Z,7.20
2018-12-19T22:28:03.332Z,7.20
2018-12-19T22:30:31.955Z,7.20
2018-12-19T22:33:00.440Z,7.20
2018-12-19T22:35:28.879Z,7.20
2018-12-19T22:37:57.425Z,7.20
2018-12-19T22:40:25.939Z,7.20
2018-12-19T22:42:54.444Z,7.20
2018-12-19T22:45:22.955Z,7.10
2018-12-19T22:47:51.593Z,7.10
2018-12-19T22:50:20.090Z,7.20
2018-12-19T22:52:48.604Z,7.20
2018-12-19T22:55:17.184Z,7.20
2018-12-19T22:57:45.656Z,7.20
2018-12-19T23:00:17.062Z,7.20
2018-12-19T23:02:51.641Z,7.10
2018-12-19T23:05:25.541Z,7.10
2018-12-19T23:07:54.036Z,7.10
2018-12-19T23:10:22.575Z,7.10
2018-12-19T23:12:51.023Z,7.10
2018-12-19T23:15:20.065Z,7.10
2018-12-19T23:17:48.619Z,7.10
2018-12-19T23:20:17.330Z,7.10
2018-12-19T23:22:45.899Z,7.10
2018-12-19T23:25:14.576Z,7.10
2018-12-19T23:27:43.113Z,7.10
2018-12-19T23:30:12.039Z,7.10
2018-12-19T23:32:40.665Z,7.20
2018-12-19T23:35:09.194Z,7.10
2018-12-19T23:37:37.879Z,7.10
2018-12-19T23:40:06.591Z,7.10
2018-12-19T23:42:35.062Z,7.10
2018-12-19T23:45:04.136Z,7.10
2018-12-19T23:47:32.568Z,7.00
2018-12-19T23:50:01.024Z,7.10
2018-12-19T23:52:29.628Z,7.10
2018-12-19T23:54:58.158Z,7.10
2018-12-19T23:57:26.694Z,7.10
2018-12-19T23:59:55.322Z,7.10
